sensor_id;sensor_type;location;lat;lon;timestamp;pressure;altitude;pressure_sealevel;temperature;humidity
73031;BME280;61206;50.816;6.012;2022-07-11T00:01:23;100539.53;;;18.88;59.91
73031;BME280;61206;50.816;6.012;2022-07-11T00:03:48;100541.22;;;18.83;60.26
73031;BME280;61206;50.816;6.012;2022-07-11T00:06:13;100549.91;;;18.80;60.32
73031;BME280;61206;50.816;6.012;2022-07-11T00:08:39;100534.13;;;18.65;60.48
73031;BME280;61206;50.816;6.012;2022-07-11T00:11:04;100546.69;;;18.78;60.55
73031;BME280;61206;50.816;6.012;2022-07-11T00:13:30;100540.16;;;18.71;60.95
73031;BME280;61206;50.816;6.012;2022-07-11T00:15:55;100529.34;;;18.62;60.85
73031;BME280;61206;50.816;6.012;2022-07-11T00:18:20;100525.06;;;18.61;60.84
73031;BME280;61206;50.816;6.012;2022-07-11T00:20:49;100548.66;;;18.64;60.84
73031;BME280;61206;50.816;6.012;2022-07-11T00:23:14;100536.91;;;18.60;60.79
73031;BME280;61206;50.816;6.012;2022-07-11T00:25:40;100556.09;;;18.67;60.89
73031;BME280;61206;50.816;6.012;2022-07-11T00:28:05;100538.97;;;18.63;60.77
73031;BME280;61206;50.816;6.012;2022-07-11T00:30:33;100537.00;;;18.69;60.91
73031;BME280;61206;50.816;6.012;2022-07-11T00:32:59;100543.66;;;18.71;60.94
73031;BME280;61206;50.816;6.012;2022-07-11T00:35:24;100535.88;;;18.70;61.17
73031;BME280;61206;50.816;6.012;2022-07-11T00:37:50;100536.38;;;18.72;60.76
73031;BME280;61206;50.816;6.012;2022-07-11T00:40:15;100536.50;;;18.67;60.81
73031;BME280;61206;50.816;6.012;2022-07-11T00:42:41;100537.66;;;18.74;60.73
73031;BME280;61206;50.816;6.012;2022-07-11T00:45:07;100540.34;;;18.74;60.96
73031;BME280;61206;50.816;6.012;2022-07-11T00:47:32;100531.50;;;18.74;60.82
73031;BME280;61206;50.816;6.012;2022-07-11T00:49:58;100547.16;;;18.72;61.24
73031;BME280;61206;50.816;6.012;2022-07-11T00:52:24;100541.25;;;18.70;61.07
73031;BME280;61206;50.816;6.012;2022-07-11T00:54:50;100534.47;;;18.72;60.79
73031;BME280;61206;50.816;6.012;2022-07-11T00:57:15;100529.91;;;18.73;60.92
73031;BME280;61206;50.816;6.012;2022-07-11T00:59:41;100518.78;;;18.66;60.83
73031;BME280;61206;50.816;6.012;2022-07-11T01:02:06;100532.72;;;18.68;61.01
73031;BME280;61206;50.816;6.012;2022-07-11T01:04:32;100520.06;;;18.68;61.03
73031;BME280;61206;50.816;6.012;2022-07-11T01:06:58;100525.13;;;18.70;61.41
73031;BME280;61206;50.816;6.012;2022-07-11T01:09:25;100518.00;;;18.65;61.25
73031;BME280;61206;50.816;6.012;2022-07-11T01:11:51;100521.63;;;18.69;61.38
73031;BME280;61206;50.816;6.012;2022-07-11T01:14:17;100514.19;;;18.66;61.36
73031;BME280;61206;50.816;6.012;2022-07-11T01:16:43;100518.47;;;18.67;61.62
73031;BME280;61206;50.816;6.012;2022-07-11T01:19:09;100503.25;;;18.63;61.51
73031;BME280;61206;50.816;6.012;2022-07-11T01:21:39;100511.88;;;18.73;61.14
73031;BME280;61206;50.816;6.012;2022-07-11T01:24:07;100514.38;;;18.70;61.39
73031;BME280;61206;50.816;6.012;2022-07-11T01:26:34;100513.69;;;18.64;61.51
73031;BME280;61206;50.816;6.012;2022-07-11T01:29:11;100487.22;;;18.58;60.84
73031;BME280;61206;50.816;6.012;2022-07-11T01:31:43;100503.63;;;18.70;61.62
73031;BME280;61206;50.816;6.012;2022-07-11T01:34:09;100515.97;;;18.71;61.37
73031;BME280;61206;50.816;6.012;2022-07-11T01:36:36;100505.81;;;18.68;61.54
73031;BME280;61206;50.816;6.012;2022-07-11T01:39:02;100511.06;;;18.73;61.77
73031;BME280;61206;50.816;6.012;2022-07-11T01:41:27;100510.59;;;18.71;61.63
73031;BME280;61206;50.816;6.012;2022-07-11T01:43:53;100498.84;;;18.67;61.56
73031;BME280;61206;50.816;6.012;2022-07-11T01:46:18;100498.56;;;18.68;61.68
73031;BME280;61206;50.816;6.012;2022-07-11T01:48:45;100504.41;;;18.70;61.30
73031;BME280;61206;50.816;6.012;2022-07-11T01:51:10;100501.44;;;18.72;61.77
73031;BME280;61206;50.816;6.012;2022-07-11T01:53:36;100505.69;;;18.73;61.77
73031;BME280;61206;50.816;6.012;2022-07-11T01:56:01;100493.47;;;18.67;61.39
73031;BME280;61206;50.816;6.012;2022-07-11T01:58:27;100491.38;;;18.64;61.46
73031;BME280;61206;50.816;6.012;2022-07-11T02:00:58;100486.63;;;18.61;61.77
73031;BME280;61206;50.816;6.012;2022-07-11T02:03:23;100492.31;;;18.59;61.57
73031;BME280;61206;50.816;6.012;2022-07-11T02:06:14;100495.69;;;18.65;61.71
73031;BME280;61206;50.816;6.012;2022-07-11T02:08:39;100482.97;;;18.57;61.56
73031;BME280;61206;50.816;6.012;2022-07-11T02:11:04;100486.94;;;18.59;61.53
73031;BME280;61206;50.816;6.012;2022-07-11T02:13:30;100484.16;;;18.51;61.56
73031;BME280;61206;50.816;6.012;2022-07-11T02:15:55;100466.19;;;18.38;62.19
73031;BME280;61206;50.816;6.012;2022-07-11T02:18:21;100491.72;;;18.49;62.39
73031;BME280;61206;50.816;6.012;2022-07-11T02:20:47;100469.75;;;18.33;62.39
73031;BME280;61206;50.816;6.012;2022-07-11T02:23:17;100489.84;;;18.35;62.84
73031;BME280;61206;50.816;6.012;2022-07-11T02:25:44;100487.47;;;18.34;62.80
73031;BME280;61206;50.816;6.012;2022-07-11T02:28:10;100477.75;;;18.24;62.94
73031;BME280;61206;50.816;6.012;2022-07-11T02:30:37;100491.38;;;18.28;63.08
73031;BME280;61206;50.816;6.012;2022-07-11T02:33:03;100482.44;;;18.19;63.01
73031;BME280;61206;50.816;6.012;2022-07-11T02:35:29;100481.44;;;18.15;63.24
73031;BME280;61206;50.816;6.012;2022-07-11T02:37:55;100486.34;;;18.13;63.15
73031;BME280;61206;50.816;6.012;2022-07-11T02:40:20;100497.97;;;18.08;63.43
73031;BME280;61206;50.816;6.012;2022-07-11T02:42:46;100493.81;;;18.02;63.33
73031;BME280;61206;50.816;6.012;2022-07-11T02:45:13;100490.03;;;17.90;63.49
73031;BME280;61206;50.816;6.012;2022-07-11T02:47:40;100499.59;;;17.82;63.65
73031;BME280;61206;50.816;6.012;2022-07-11T02:50:09;100496.31;;;17.85;63.88
73031;BME280;61206;50.816;6.012;2022-07-11T02:52:36;100494.22;;;17.82;63.85
73031;BME280;61206;50.816;6.012;2022-07-11T02:55:02;100497.19;;;17.80;63.87
73031;BME280;61206;50.816;6.012;2022-07-11T02:57:27;100495.91;;;17.78;64.00
73031;BME280;61206;50.816;6.012;2022-07-11T02:59:53;100498.28;;;17.66;64.37
73031;BME280;61206;50.816;6.012;2022-07-11T03:02:19;100499.09;;;17.66;64.53
73031;BME280;61206;50.816;6.012;2022-07-11T03:04:45;100498.38;;;17.61;64.69
73031;BME280;61206;50.816;6.012;2022-07-11T03:07:10;100503.31;;;17.54;64.95
73031;BME280;61206;50.816;6.012;2022-07-11T03:12:16;100487.13;;;17.45;65.22
73031;BME280;61206;50.816;6.012;2022-07-11T03:17:10;100507.41;;;17.51;65.04
73031;BME280;61206;50.816;6.012;2022-07-11T03:19:35;100501.91;;;17.43;64.98
73031;BME280;61206;50.816;6.012;2022-07-11T03:22:02;100501.53;;;17.36;65.66
73031;BME280;61206;50.816;6.012;2022-07-11T03:24:29;100505.69;;;17.42;65.58
73031;BME280;61206;50.816;6.012;2022-07-11T03:26:54;100516.94;;;17.44;65.42
73031;BME280;61206;50.816;6.012;2022-07-11T03:29:21;100494.25;;;17.36;65.23
73031;BME280;61206;50.816;6.012;2022-07-11T03:31:46;100517.41;;;17.46;65.58
73031;BME280;61206;50.816;6.012;2022-07-11T03:34:14;100519.00;;;17.47;65.11
73031;BME280;61206;50.816;6.012;2022-07-11T03:36:40;100518.81;;;17.43;65.47
73031;BME280;61206;50.816;6.012;2022-07-11T03:39:05;100519.50;;;17.49;65.33
73031;BME280;61206;50.816;6.012;2022-07-11T03:41:31;100521.59;;;17.52;65.28
73031;BME280;61206;50.816;6.012;2022-07-11T03:43:56;100503.91;;;17.51;64.96
73031;BME280;61206;50.816;6.012;2022-07-11T03:46:23;100510.81;;;17.57;65.43
73031;BME280;61206;50.816;6.012;2022-07-11T03:48:49;100498.47;;;17.56;64.80
73031;BME280;61206;50.816;6.012;2022-07-11T03:51:16;100502.44;;;17.58;65.31
73031;BME280;61206;50.816;6.012;2022-07-11T03:53:44;100514.41;;;17.66;65.07
73031;BME280;61206;50.816;6.012;2022-07-11T03:56:09;100517.38;;;17.64;65.33
73031;BME280;61206;50.816;6.012;2022-07-11T03:58:35;100519.16;;;17.69;65.13
73031;BME280;61206;50.816;6.012;2022-07-11T04:01:00;100523.47;;;17.70;65.47
73031;BME280;61206;50.816;6.012;2022-07-11T04:03:26;100511.59;;;17.71;65.23
73031;BME280;61206;50.816;6.012;2022-07-11T04:05:58;100520.56;;;17.80;65.12
73031;BME280;61206;50.816;6.012;2022-07-11T04:08:24;100521.66;;;17.79;65.04
73031;BME280;61206;50.816;6.012;2022-07-11T04:10:49;100520.28;;;17.82;65.25
73031;BME280;61206;50.816;6.012;2022-07-11T04:13:15;100526.06;;;17.89;64.88
73031;BME280;61206;50.816;6.012;2022-07-11T04:15:40;100514.50;;;17.88;65.17
73031;BME280;61206;50.816;6.012;2022-07-11T04:18:06;100514.41;;;17.93;64.89
73031;BME280;61206;50.816;6.012;2022-07-11T04:20:31;100528.63;;;17.94;64.69
73031;BME280;61206;50.816;6.012;2022-07-11T04:22:56;100515.47;;;17.92;64.67
73031;BME280;61206;50.816;6.012;2022-07-11T04:25:22;100520.16;;;18.00;64.66
73031;BME280;61206;50.816;6.012;2022-07-11T04:27:47;100522.94;;;18.09;64.36
73031;BME280;61206;50.816;6.012;2022-07-11T04:30:13;100524.81;;;18.08;64.52
73031;BME280;61206;50.816;6.012;2022-07-11T04:32:38;100513.41;;;18.03;64.49
73031;BME280;61206;50.816;6.012;2022-07-11T04:35:04;100533.97;;;18.07;64.44
73031;BME280;61206;50.816;6.012;2022-07-11T04:37:30;100534.28;;;18.06;64.77
73031;BME280;61206;50.816;6.012;2022-07-11T04:39:55;100529.03;;;18.01;64.74
73031;BME280;61206;50.816;6.012;2022-07-11T04:42:20;100531.19;;;17.99;64.83
73031;BME280;61206;50.816;6.012;2022-07-11T04:44:46;100531.50;;;17.97;64.82
73031;BME280;61206;50.816;6.012;2022-07-11T04:47:11;100526.50;;;18.04;65.07
73031;BME280;61206;50.816;6.012;2022-07-11T04:49:37;100530.13;;;18.13;64.54
73031;BME280;61206;50.816;6.012;2022-07-11T04:52:04;100522.66;;;18.10;64.88
73031;BME280;61206;50.816;6.012;2022-07-11T04:54:29;100537.94;;;18.23;64.98
73031;BME280;61206;50.816;6.012;2022-07-11T04:56:55;100534.78;;;18.21;64.96
73031;BME280;61206;50.816;6.012;2022-07-11T04:59:22;100523.94;;;18.13;65.22
73031;BME280;61206;50.816;6.012;2022-07-11T05:01:48;100519.84;;;18.15;64.91
73031;BME280;61206;50.816;6.012;2022-07-11T05:04:14;100529.53;;;18.16;65.20
73031;BME280;61206;50.816;6.012;2022-07-11T05:06:40;100514.50;;;18.02;65.21
73031;BME280;61206;50.816;6.012;2022-07-11T05:09:05;100536.38;;;18.09;65.79
73031;BME280;61206;50.816;6.012;2022-07-11T05:11:37;100546.63;;;18.07;66.00
73031;BME280;61206;50.816;6.012;2022-07-11T05:14:02;100547.81;;;18.01;65.95
73031;BME280;61206;50.816;6.012;2022-07-11T05:16:28;100532.19;;;17.89;66.29
73031;BME280;61206;50.816;6.012;2022-07-11T05:18:57;100536.88;;;17.97;66.07
73031;BME280;61206;50.816;6.012;2022-07-11T05:21:22;100536.78;;;18.02;65.99
73031;BME280;61206;50.816;6.012;2022-07-11T05:23:50;100530.31;;;18.03;66.20
73031;BME280;61206;50.816;6.012;2022-07-11T05:26:16;100542.22;;;18.11;66.08
73031;BME280;61206;50.816;6.012;2022-07-11T05:28:41;100544.53;;;18.04;66.15
73031;BME280;61206;50.816;6.012;2022-07-11T05:31:07;100540.66;;;18.10;65.94
73031;BME280;61206;50.816;6.012;2022-07-11T05:33:32;100534.56;;;18.04;66.14
73031;BME280;61206;50.816;6.012;2022-07-11T05:36:04;100530.13;;;18.13;66.43
73031;BME280;61206;50.816;6.012;2022-07-11T05:38:30;100532.19;;;18.16;66.15
73031;BME280;61206;50.816;6.012;2022-07-11T05:40:56;100532.88;;;18.22;66.30
73031;BME280;61206;50.816;6.012;2022-07-11T05:43:24;100539.03;;;18.36;66.12
73031;BME280;61206;50.816;6.012;2022-07-11T05:45:49;100548.56;;;18.42;66.11
73031;BME280;61206;50.816;6.012;2022-07-11T05:48:14;100540.41;;;18.47;65.70
73031;BME280;61206;50.816;6.012;2022-07-11T05:50:40;100558.09;;;18.48;66.15
73031;BME280;61206;50.816;6.012;2022-07-11T05:53:08;100550.84;;;18.49;65.51
73031;BME280;61206;50.816;6.012;2022-07-11T05:55:34;100551.75;;;18.58;66.09
73031;BME280;61206;50.816;6.012;2022-07-11T05:58:05;100544.59;;;18.40;65.96
73031;BME280;61206;50.816;6.012;2022-07-11T06:01:14;100496.31;;;17.71;66.54
73031;BME280;61206;50.816;6.012;2022-07-11T06:03:40;100486.47;;;17.67;66.86
73031;BME280;61206;50.816;6.012;2022-07-11T06:06:08;100520.97;;;18.01;66.96
73031;BME280;61206;50.816;6.012;2022-07-11T06:08:36;100561.63;;;18.08;67.07
73031;BME280;61206;50.816;6.012;2022-07-11T06:11:20;100514.34;;;17.39;68.45
73031;BME280;61206;50.816;6.012;2022-07-11T06:13:46;100502.44;;;17.12;69.43
73031;BME280;61206;50.816;6.012;2022-07-11T06:16:13;100578.91;;;17.28;71.15
73031;BME280;61206;50.816;6.012;2022-07-11T06:18:39;100501.88;;;16.64;71.24
73031;BME280;61206;50.816;6.012;2022-07-11T06:21:25;100556.81;;;16.99;71.53
73031;BME280;61206;50.816;6.012;2022-07-11T06:23:50;100553.38;;;16.99;71.31
73031;BME280;61206;50.816;6.012;2022-07-11T06:26:19;100592.47;;;17.51;70.57
73031;BME280;61206;50.816;6.012;2022-07-11T06:28:50;100527.72;;;17.25;69.83
73031;BME280;61206;50.816;6.012;2022-07-11T06:31:16;100530.03;;;17.32;69.96
73031;BME280;61206;50.816;6.012;2022-07-11T06:33:42;100579.16;;;17.13;71.53
73031;BME280;61206;50.816;6.012;2022-07-11T06:36:10;100553.00;;;16.87;72.24
73031;BME280;61206;50.816;6.012;2022-07-11T06:38:39;100558.50;;;16.95;72.10
73031;BME280;61206;50.816;6.012;2022-07-11T06:41:07;100578.63;;;17.11;72.05
73031;BME280;61206;50.816;6.012;2022-07-11T06:43:35;100564.63;;;17.14;71.82
73031;BME280;61206;50.816;6.012;2022-07-11T06:46:01;100572.25;;;17.40;71.17
73031;BME280;61206;50.816;6.012;2022-07-11T06:48:31;100583.88;;;17.67;70.64
73031;BME280;61206;50.816;6.012;2022-07-11T06:50:56;100584.00;;;17.76;70.12
73031;BME280;61206;50.816;6.012;2022-07-11T06:53:29;100590.97;;;17.77;69.91
73031;BME280;61206;50.816;6.012;2022-07-11T06:55:55;100525.56;;;17.41;70.13
73031;BME280;61206;50.816;6.012;2022-07-11T06:58:21;100516.69;;;17.59;69.27
73031;BME280;61206;50.816;6.012;2022-07-11T07:01:06;100568.41;;;18.19;68.23
73031;BME280;61206;50.816;6.012;2022-07-11T07:03:36;100568.84;;;18.48;67.86
73031;BME280;61206;50.816;6.012;2022-07-11T07:06:02;100573.44;;;18.75;66.85
73031;BME280;61206;50.816;6.012;2022-07-11T07:08:37;100564.16;;;18.81;66.22
73031;BME280;61206;50.816;6.012;2022-07-11T07:11:02;100569.84;;;19.02;66.14
73031;BME280;61206;50.816;6.012;2022-07-11T07:13:28;100467.66;;;18.44;65.39
73031;BME280;61206;50.816;6.012;2022-07-11T07:15:57;100482.38;;;18.60;65.15
73031;BME280;61206;50.816;6.012;2022-07-11T07:18:26;100579.38;;;19.30;64.42
73031;BME280;61206;50.816;6.012;2022-07-11T07:21:01;100567.34;;;19.05;64.87
73031;BME280;61206;50.816;6.012;2022-07-11T07:23:26;100590.50;;;19.15;64.85
73031;BME280;61206;50.816;6.012;2022-07-11T07:25:52;100582.63;;;18.96;64.89
73031;BME280;61206;50.816;6.012;2022-07-11T07:30:54;100591.66;;;19.00;65.43
73031;BME280;61206;50.816;6.012;2022-07-11T07:33:39;100594.75;;;18.71;65.77
73031;BME280;61206;50.816;6.012;2022-07-11T07:36:05;100592.25;;;18.61;65.82
73031;BME280;61206;50.816;6.012;2022-07-11T07:38:31;100584.13;;;18.53;66.46
73031;BME280;61206;50.816;6.012;2022-07-11T07:40:56;100562.69;;;18.61;66.12
73031;BME280;61206;50.816;6.012;2022-07-11T07:43:22;100492.94;;;18.29;65.74
73031;BME280;61206;50.816;6.012;2022-07-11T07:45:50;100591.59;;;18.92;65.47
73031;BME280;61206;50.816;6.012;2022-07-11T07:48:17;100584.19;;;18.97;65.16
73031;BME280;61206;50.816;6.012;2022-07-11T07:50:45;100576.13;;;18.97;65.03
73031;BME280;61206;50.816;6.012;2022-07-11T07:53:15;100483.25;;;18.55;64.93
73031;BME280;61206;50.816;6.012;2022-07-11T07:55:40;100540.19;;;18.93;65.18
73031;BME280;61206;50.816;6.012;2022-07-11T07:58:06;100546.53;;;18.97;65.04
73031;BME280;61206;50.816;6.012;2022-07-11T08:00:31;100556.88;;;18.81;64.87
73031;BME280;61206;50.816;6.012;2022-07-11T08:03:22;100578.16;;;19.14;64.80
73031;BME280;61206;50.816;6.012;2022-07-11T08:05:47;100568.25;;;19.23;65.17
73031;BME280;61206;50.816;6.012;2022-07-11T08:08:13;100578.38;;;19.39;64.48
73031;BME280;61206;50.816;6.012;2022-07-11T08:10:40;100572.03;;;19.44;63.63
73031;BME280;61206;50.816;6.012;2022-07-11T08:13:06;100585.69;;;19.48;63.89
73031;BME280;61206;50.816;6.012;2022-07-11T08:15:31;100572.59;;;19.55;63.73
73031;BME280;61206;50.816;6.012;2022-07-11T08:17:57;100583.44;;;19.72;63.78
73031;BME280;61206;50.816;6.012;2022-07-11T08:20:22;100568.53;;;19.66;63.13
73031;BME280;61206;50.816;6.012;2022-07-11T08:22:48;100579.22;;;19.79;63.05
73031;BME280;61206;50.816;6.012;2022-07-11T08:25:16;100573.66;;;19.76;62.90
73031;BME280;61206;50.816;6.012;2022-07-11T08:27:41;100580.34;;;19.87;63.20
73031;BME280;61206;50.816;6.012;2022-07-11T08:30:19;100563.66;;;19.76;62.20
73031;BME280;61206;50.816;6.012;2022-07-11T08:32:45;100554.72;;;19.59;63.08
73031;BME280;61206;50.816;6.012;2022-07-11T08:35:11;100571.66;;;19.59;63.06
73031;BME280;61206;50.816;6.012;2022-07-11T08:37:44;100576.19;;;19.50;63.59
73031;BME280;61206;50.816;6.012;2022-07-11T08:40:11;100566.72;;;19.08;64.60
73031;BME280;61206;50.816;6.012;2022-07-11T08:45:32;100576.56;;;19.13;65.09
73031;BME280;61206;50.816;6.012;2022-07-11T08:48:08;100494.94;;;18.73;64.58
73031;BME280;61206;50.816;6.012;2022-07-11T08:50:39;100586.03;;;19.32;64.35
73031;BME280;61206;50.816;6.012;2022-07-11T08:53:10;100592.16;;;19.47;64.24
73031;BME280;61206;50.816;6.012;2022-07-11T08:55:43;100561.91;;;19.41;63.84
73031;BME280;61206;50.816;6.012;2022-07-11T08:58:09;100596.00;;;19.76;63.28
73031;BME280;61206;50.816;6.012;2022-07-11T09:00:36;100595.72;;;19.86;63.35
73031;BME280;61206;50.816;6.012;2022-07-11T09:03:06;100546.78;;;19.62;63.19
73031;BME280;61206;50.816;6.012;2022-07-11T09:05:32;100585.47;;;19.97;62.72
73031;BME280;61206;50.816;6.012;2022-07-11T09:07:58;100551.00;;;19.77;62.25
73031;BME280;61206;50.816;6.012;2022-07-11T09:10:25;100530.16;;;19.60;62.78
73031;BME280;61206;50.816;6.012;2022-07-11T09:15:45;100597.69;;;20.03;62.21
73031;BME280;61206;50.816;6.012;2022-07-11T09:18:37;100585.22;;;20.16;62.58
73031;BME280;61206;50.816;6.012;2022-07-11T09:21:13;100596.00;;;20.24;62.35
73031;BME280;61206;50.816;6.012;2022-07-11T09:24:03;100588.03;;;20.02;61.90
73031;BME280;61206;50.816;6.012;2022-07-11T09:26:50;100588.78;;;19.94;62.63
73031;BME280;61206;50.816;6.012;2022-07-11T09:29:17;100583.91;;;20.05;62.87
73031;BME280;61206;50.816;6.012;2022-07-11T09:31:45;100576.66;;;20.14;61.75
73031;BME280;61206;50.816;6.012;2022-07-11T09:34:12;100592.09;;;20.30;61.80
73031;BME280;61206;50.816;6.012;2022-07-11T09:41:43;100590.53;;;20.38;61.38
73031;BME280;61206;50.816;6.012;2022-07-11T09:44:18;100577.44;;;20.14;62.15
73031;BME280;61206;50.816;6.012;2022-07-11T09:46:50;100590.53;;;20.29;61.52
73031;BME280;61206;50.816;6.012;2022-07-11T09:49:39;100572.63;;;20.03;61.60
73031;BME280;61206;50.816;6.012;2022-07-11T09:52:16;100588.97;;;20.06;62.82
73031;BME280;61206;50.816;6.012;2022-07-11T09:55:14;100590.22;;;20.00;62.59
73031;BME280;61206;50.816;6.012;2022-07-11T09:57:40;100590.34;;;19.86;63.10
73031;BME280;61206;50.816;6.012;2022-07-11T10:00:08;100585.09;;;19.90;62.88
73031;BME280;61206;50.816;6.012;2022-07-11T10:02:38;100579.78;;;20.07;62.05
73031;BME280;61206;50.816;6.012;2022-07-11T10:05:04;100584.47;;;20.24;62.30
73031;BME280;61206;50.816;6.012;2022-07-11T10:07:31;100588.00;;;20.33;62.07
73031;BME280;61206;50.816;6.012;2022-07-11T10:10:01;100590.84;;;20.36;61.56
73031;BME280;61206;50.816;6.012;2022-07-11T10:12:31;100580.41;;;20.43;60.76
73031;BME280;61206;50.816;6.012;2022-07-11T10:15:51;100588.28;;;20.31;61.70
73031;BME280;61206;50.816;6.012;2022-07-11T10:18:41;100600.34;;;20.34;62.07
73031;BME280;61206;50.816;6.012;2022-07-11T10:21:15;100581.81;;;20.32;62.10
73031;BME280;61206;50.816;6.012;2022-07-11T10:24:14;100594.66;;;20.27;62.20
73031;BME280;61206;50.816;6.012;2022-07-11T10:29:50;100591.63;;;20.28;61.64
73031;BME280;61206;50.816;6.012;2022-07-11T10:32:17;100601.78;;;20.31;62.00
73031;BME280;61206;50.816;6.012;2022-07-11T10:34:43;100603.66;;;20.31;62.38
73031;BME280;61206;50.816;6.012;2022-07-11T10:37:11;100595.53;;;20.22;62.08
73031;BME280;61206;50.816;6.012;2022-07-11T10:39:38;100603.63;;;20.22;62.57
73031;BME280;61206;50.816;6.012;2022-07-11T10:42:19;100599.56;;;20.33;62.28
73031;BME280;61206;50.816;6.012;2022-07-11T10:44:54;100607.81;;;20.37;62.34
73031;BME280;61206;50.816;6.012;2022-07-11T10:47:42;100605.00;;;20.51;61.85
73031;BME280;61206;50.816;6.012;2022-07-11T10:50:17;100600.53;;;20.37;61.83
73031;BME280;61206;50.816;6.012;2022-07-11T10:52:48;100598.63;;;20.38;62.19
73031;BME280;61206;50.816;6.012;2022-07-11T10:55:28;100597.19;;;20.40;62.31
73031;BME280;61206;50.816;6.012;2022-07-11T11:03:32;100610.22;;;20.47;62.36
73031;BME280;61206;50.816;6.012;2022-07-11T11:06:08;100595.47;;;20.36;62.52
73031;BME280;61206;50.816;6.012;2022-07-11T11:08:41;100558.47;;;20.36;61.98
73031;BME280;61206;50.816;6.012;2022-07-11T11:14:25;100616.47;;;20.82;61.22
73031;BME280;61206;50.816;6.012;2022-07-11T11:16:52;100609.47;;;20.81;61.35
73031;BME280;61206;50.816;6.012;2022-07-11T11:19:52;100622.34;;;20.92;60.81
73031;BME280;61206;50.816;6.012;2022-07-11T11:22:20;100613.31;;;20.88;61.19
73031;BME280;61206;50.816;6.012;2022-07-11T11:24:51;100620.44;;;20.84;61.25
73031;BME280;61206;50.816;6.012;2022-07-11T11:27:19;100616.63;;;20.94;61.32
73031;BME280;61206;50.816;6.012;2022-07-11T11:29:47;100621.22;;;21.02;61.65
73031;BME280;61206;50.816;6.012;2022-07-11T11:32:12;100619.66;;;21.01;61.28
73031;BME280;61206;50.816;6.012;2022-07-11T11:34:39;100617.78;;;21.10;61.20
73031;BME280;61206;50.816;6.012;2022-07-11T11:37:08;100606.63;;;21.20;61.18
73031;BME280;61206;50.816;6.012;2022-07-11T11:39:38;100617.59;;;21.32;60.27
73031;BME280;61206;50.816;6.012;2022-07-11T11:42:08;100617.75;;;21.36;60.00
73031;BME280;61206;50.816;6.012;2022-07-11T11:44:53;100603.59;;;21.39;60.05
73031;BME280;61206;50.816;6.012;2022-07-11T11:47:19;100614.41;;;21.47;60.20
73031;BME280;61206;50.816;6.012;2022-07-11T11:49:52;100615.34;;;21.51;59.86
73031;BME280;61206;50.816;6.012;2022-07-11T11:52:21;100599.47;;;21.50;59.41
73031;BME280;61206;50.816;6.012;2022-07-11T11:54:54;100610.41;;;21.45;59.44
73031;BME280;61206;50.816;6.012;2022-07-11T11:57:27;100599.81;;;21.31;59.19
73031;BME280;61206;50.816;6.012;2022-07-11T12:00:23;100608.69;;;21.40;59.28
73031;BME280;61206;50.816;6.012;2022-07-11T12:02:52;100605.69;;;21.33;59.60
73031;BME280;61206;50.816;6.012;2022-07-11T12:05:17;100600.91;;;21.39;59.42
73031;BME280;61206;50.816;6.012;2022-07-11T12:07:43;100611.72;;;21.47;59.79
73031;BME280;61206;50.816;6.012;2022-07-11T12:10:17;100615.19;;;21.39;59.93
73031;BME280;61206;50.816;6.012;2022-07-11T12:12:46;100611.72;;;21.30;59.46
73031;BME280;61206;50.816;6.012;2022-07-11T12:18:00;100609.66;;;21.36;60.04
73031;BME280;61206;50.816;6.012;2022-07-11T12:20:48;100546.78;;;20.92;59.88
73031;BME280;61206;50.816;6.012;2022-07-11T12:23:20;100612.03;;;21.46;59.77
73031;BME280;61206;50.816;6.012;2022-07-11T12:25:47;100614.72;;;21.46;59.99
73031;BME280;61206;50.816;6.012;2022-07-11T12:28:13;100604.72;;;21.46;59.97
73031;BME280;61206;50.816;6.012;2022-07-11T12:30:42;100599.50;;;21.41;59.41
73031;BME280;61206;50.816;6.012;2022-07-11T12:33:13;100617.56;;;21.49;59.23
73031;BME280;61206;50.816;6.012;2022-07-11T12:38:23;100587.13;;;21.32;59.63
73031;BME280;61206;50.816;6.012;2022-07-11T12:41:05;100610.13;;;21.46;60.24
73031;BME280;61206;50.816;6.012;2022-07-11T12:43:51;100585.50;;;21.39;59.38
73031;BME280;61206;50.816;6.012;2022-07-11T12:46:39;100578.53;;;21.30;60.15
73031;BME280;61206;50.816;6.012;2022-07-11T12:49:15;100602.81;;;21.47;60.21
73031;BME280;61206;50.816;6.012;2022-07-11T12:51:43;100602.47;;;21.48;59.40
73031;BME280;61206;50.816;6.012;2022-07-11T12:54:14;100589.03;;;21.23;59.04
73031;BME280;61206;50.816;6.012;2022-07-11T12:56:40;100599.81;;;21.40;60.11
73031;BME280;61206;50.816;6.012;2022-07-11T12:59:18;100587.25;;;21.35;59.74
73031;BME280;61206;50.816;6.012;2022-07-11T13:02:10;100605.97;;;21.49;59.12
73031;BME280;61206;50.816;6.012;2022-07-11T13:04:37;100607.22;;;21.51;60.13
73031;BME280;61206;50.816;6.012;2022-07-11T13:07:24;100599.91;;;21.61;59.08
73031;BME280;61206;50.816;6.012;2022-07-11T13:10:13;100599.09;;;21.60;59.02
73031;BME280;61206;50.816;6.012;2022-07-11T13:12:40;100592.59;;;21.61;59.49
73031;BME280;61206;50.816;6.012;2022-07-11T13:15:07;100599.09;;;21.60;59.12
73031;BME280;61206;50.816;6.012;2022-07-11T13:17:53;100600.06;;;21.64;59.76
73031;BME280;61206;50.816;6.012;2022-07-11T13:20:26;100583.75;;;21.43;59.15
73031;BME280;61206;50.816;6.012;2022-07-11T13:22:52;100594.88;;;21.50;59.48
73031;BME280;61206;50.816;6.012;2022-07-11T13:25:19;100596.16;;;21.36;59.39
73031;BME280;61206;50.816;6.012;2022-07-11T13:27:47;100576.16;;;20.94;60.77
73031;BME280;61206;50.816;6.012;2022-07-11T13:30:15;100598.22;;;20.87;61.09
73031;BME280;61206;50.816;6.012;2022-07-11T13:32:46;100591.41;;;20.73;61.31
73031;BME280;61206;50.816;6.012;2022-07-11T13:35:16;100602.97;;;20.82;61.28
73031;BME280;61206;50.816;6.012;2022-07-11T13:37:46;100600.44;;;20.94;61.06